createdAt,value
2023-02-08T00:01:12.631Z,99003.00
2023-02-08T00:03:39.621Z,99012.00
2023-02-08T00:06:08.107Z,99022.00
2023-02-08T00:08:36.486Z,99022.00
2023-02-08T00:11:05.669Z,99017.00
2023-02-08T00:13:33.859Z,99018.00
2023-02-08T00:16:01.618Z,99010.00
2023-02-08T00:18:28.825Z,99014.00
2023-02-08T00:20:57.266Z,99032.00
2023-02-08T00:23:26.304Z,99010.00
2023-02-08T00:25:53.203Z,99016.00
2023-02-08T00:28:20.045Z,99024.00
2023-02-08T00:30:46.952Z,99022.00
2023-02-08T00:33:13.878Z,99028.00
2023-02-08T00:35:42.266Z,99033.00
2023-02-08T00:38:09.078Z,99024.00
2023-02-08T00:40:36.275Z,99025.00
2023-02-08T00:43:03.264Z,99030.00
2023-02-08T00:45:30.186Z,99024.00
2023-02-08T00:47:56.938Z,99025.00
2023-02-08T00:50:23.890Z,99030.00
2023-02-08T00:52:50.699Z,99030.00
2023-02-08T00:55:17.749Z,99037.00
2023-02-08T00:57:44.543Z,99038.00
2023-02-08T01:00:12.435Z,99042.00
2023-02-08T01:02:39.752Z,99039.00
2023-02-08T01:05:07.171Z,99042.00
2023-02-08T01:07:36.825Z,99049.00
2023-02-08T01:10:06.033Z,99054.00
2023-02-08T01:12:33.255Z,99044.00
2023-02-08T01:14:59.996Z,99053.00
2023-02-08T01:17:26.877Z,99057.00
2023-02-08T01:19:53.785Z,99041.00
2023-02-08T01:22:20.602Z,99054.00
2023-02-08T01:24:48.347Z,99050.00
2023-02-08T01:27:15.207Z,99035.00
2023-02-08T01:29:41.998Z,99037.00
2023-02-08T01:32:08.755Z,99044.00
2023-02-08T01:34:35.658Z,99041.00
2023-02-08T01:37:02.413Z,99038.00
2023-02-08T01:39:29.161Z,99042.00
2023-02-08T01:41:55.935Z,99038.00
2023-02-08T01:45:15.496Z,99040.00
2023-02-08T01:47:45.453Z,99044.00
2023-02-08T01:50:13.734Z,99034.00
2023-02-08T01:52:41.134Z,99036.00
2023-02-08T01:55:21.102Z,99024.00
2023-02-08T01:57:52.595Z,99032.00
2023-02-08T02:00:22.445Z,99030.00
2023-02-08T02:02:55.524Z,99025.00
2023-02-08T02:05:28.685Z,99024.00
2023-02-08T02:07:57.645Z,99018.00
2023-02-08T02:10:28.808Z,99022.00
2023-02-08T02:13:04.218Z,99018.00
2023-02-08T02:15:31.093Z,99025.00
2023-02-08T02:17:57.873Z,99024.00
2023-02-08T02:21:19.102Z,99017.00
2023-02-08T02:24:22.558Z,99014.00
2023-02-08T02:27:24.564Z,99020.00
2023-02-08T02:30:30.926Z,99022.00
2023-02-08T02:33:15.894Z,99023.00
2023-02-08T02:36:12.646Z,99016.00
2023-02-08T02:39:03.493Z,99012.00
2023-02-08T02:42:22.714Z,99016.00
2023-02-08T02:45:23.974Z,99029.00
2023-02-08T02:48:12.151Z,99026.00
2023-02-08T02:51:27.331Z,99015.00
2023-02-08T02:54:32.318Z,99012.00
2023-02-08T02:57:06.967Z,99010.00
2023-02-08T02:59:39.550Z,99020.00
2023-02-08T03:02:06.780Z,99018.00
2023-02-08T03:04:33.499Z,99021.00
2023-02-08T03:07:50.666Z,99023.00
2023-02-08T03:10:22.857Z,99030.00
2023-02-08T03:13:34.454Z,99012.00
2023-02-08T03:16:31.508Z,99021.00
2023-02-08T03:19:31.532Z,99017.00
2023-02-08T03:22:23.120Z,99013.00
2023-02-08T03:25:10.087Z,99003.00
2023-02-08T03:28:01.595Z,99019.00
2023-02-08T03:30:42.900Z,99013.00
2023-02-08T03:33:18.785Z,99013.00
2023-02-08T03:36:10.258Z,99010.00
2023-02-08T03:38:42.725Z,99017.00
2023-02-08T03:41:15.444Z,99016.00
2023-02-08T03:43:54.690Z,99013.00
2023-02-08T03:46:32.662Z,99023.00
2023-02-08T03:49:12.660Z,99019.00
2023-02-08T03:51:41.169Z,99014.00
2023-02-08T03:54:14.040Z,99012.00
2023-02-08T03:57:07.039Z,99023.00
2023-02-08T03:59:40.047Z,99022.00
2023-02-08T04:02:12.325Z,99023.00
2023-02-08T04:04:45.226Z,99024.00
2023-02-08T04:07:12.134Z,99013.00
2023-02-08T04:09:39.007Z,99018.00
2023-02-08T04:12:07.553Z,99012.00
2023-02-08T04:14:34.689Z,99001.00
2023-02-08T04:17:02.028Z,99009.00
2023-02-08T04:19:28.798Z,99010.00
2023-02-08T04:21:57.721Z,99000.00
2023-02-08T04:24:24.848Z,99008.00
2023-02-08T04:26:52.485Z,98997.00
2023-02-08T04:29:19.291Z,99001.00
2023-02-08T04:31:46.138Z,99003.00
2023-02-08T04:34:13.811Z,99005.00
2023-02-08T04:36:40.569Z,99003.00
2023-02-08T04:39:07.417Z,99013.00
2023-02-08T04:41:34.209Z,99010.00
2023-02-08T04:44:01.598Z,99013.00
2023-02-08T04:46:30.294Z,99013.00
2023-02-08T04:48:58.901Z,99011.00
2023-02-08T04:51:25.862Z,99010.00
2023-02-08T04:53:52.721Z,99011.00
2023-02-08T04:56:19.491Z,99005.00
2023-02-08T04:58:49.007Z,99019.00
2023-02-08T05:01:16.496Z,99029.00
2023-02-08T05:03:43.365Z,99026.00
2023-02-08T05:06:10.124Z,99025.00
2023-02-08T05:08:37.007Z,99025.00
2023-02-08T05:11:03.885Z,99017.00
2023-02-08T05:13:30.868Z,99018.00
2023-02-08T05:15:57.751Z,99020.00
2023-02-08T05:18:24.557Z,99018.00
2023-02-08T05:20:57.640Z,99029.00
2023-02-08T05:23:25.022Z,99028.00
2023-02-08T05:25:52.117Z,99026.00
2023-02-08T05:28:19.255Z,99019.00
2023-02-08T05:30:47.064Z,99023.00
2023-02-08T05:33:14.554Z,99027.00
2023-02-08T05:35:41.380Z,99029.00
2023-02-08T05:38:08.168Z,99029.00
2023-02-08T05:40:35.704Z,99032.00
2023-02-08T05:43:03.136Z,99030.00
2023-02-08T05:45:30.464Z,99033.00
2023-02-08T05:47:57.303Z,99047.00
2023-02-08T05:50:24.107Z,99039.00
2023-02-08T05:52:51.447Z,99044.00
2023-02-08T05:55:18.410Z,99050.00
2023-02-08T05:57:45.254Z,99060.00
2023-02-08T06:00:12.888Z,99056.00
2023-02-08T06:02:39.716Z,99062.00
2023-02-08T06:05:07.930Z,99064.00
2023-02-08T06:07:34.672Z,99064.00
2023-02-08T06:10:01.485Z,99052.00
2023-02-08T06:12:28.265Z,99052.00
2023-02-08T06:14:55.211Z,99054.00
2023-02-08T06:17:22.337Z,99062.00
2023-02-08T06:19:49.186Z,99066.00
2023-02-08T06:22:15.964Z,99072.00
2023-02-08T06:24:43.028Z,99071.00
2023-02-08T06:27:09.790Z,99064.00
2023-02-08T06:29:37.398Z,99071.00
2023-02-08T06:32:04.871Z,99068.00
2023-02-08T06:34:32.065Z,99064.00
2023-02-08T06:37:02.107Z,99062.00
2023-02-08T06:39:29.758Z,99069.00
2023-02-08T06:41:56.520Z,99064.00
2023-02-08T06:44:23.989Z,99060.00
2023-02-08T06:46:53.509Z,99066.00
2023-02-08T06:49:20.364Z,99059.00
2023-02-08T06:51:47.332Z,99059.00
2023-02-08T06:54:15.521Z,99051.00
2023-02-08T06:56:43.068Z,99052.00
2023-02-08T06:59:10.187Z,99051.00
2023-02-08T07:01:37.854Z,99041.00
2023-02-08T07:04:04.992Z,99057.00
2023-02-08T07:06:32.144Z,99064.00
2023-02-08T07:08:59.226Z,99057.00
2023-02-08T07:11:26.235Z,99055.00
2023-02-08T07:13:54.712Z,99050.00
2023-02-08T07:16:22.427Z,99069.00
2023-02-08T07:18:49.438Z,99055.00
2023-02-08T07:21:16.250Z,99066.00
2023-02-08T07:23:43.177Z,99057.00
2023-02-08T07:26:14.626Z,99064.00
2023-02-08T07:28:42.261Z,99043.00
2023-02-08T07:31:13.408Z,99057.00
2023-02-08T07:33:40.931Z,99065.00
2023-02-08T07:36:08.958Z,99064.00
2023-02-08T07:38:36.617Z,99064.00
2023-02-08T07:41:11.412Z,99065.00
2023-02-08T07:43:40.566Z,99079.00
2023-02-08T07:46:13.192Z,99072.00
2023-02-08T07:48:40.598Z,99070.00
2023-02-08T07:51:08.263Z,99062.00
2023-02-08T07:53:35.903Z,99058.00
2023-02-08T07:56:02.963Z,99080.00
2023-02-08T07:58:29.996Z,99089.00
2023-02-08T08:00:56.800Z,99079.00
2023-02-08T08:03:25.044Z,99085.00
2023-02-08T08:05:54.163Z,99084.00
2023-02-08T08:08:21.960Z,99088.00
2023-02-08T08:10:49.839Z,99093.00
2023-02-08T08:13:16.756Z,99103.00
2023-02-08T08:15:43.607Z,99099.00
2023-02-08T08:18:11.562Z,99100.00
2023-02-08T08:20:39.762Z,99099.00
2023-02-08T08:23:07.491Z,99096.00
2023-02-08T08:25:35.781Z,99100.00
2023-02-08T08:28:03.225Z,99103.00
2023-02-08T08:30:30.761Z,99089.00
2023-02-08T08:32:59.071Z,99089.00
2023-02-08T08:35:25.822Z,99092.00
2023-02-08T08:37:52.590Z,99088.00
2023-02-08T08:40:20.014Z,99088.00
2023-02-08T08:42:46.780Z,99080.00
2023-02-08T08:45:14.532Z,99078.00
2023-02-08T08:47:41.985Z,99085.00
2023-02-08T08:50:09.611Z,99082.00
2023-02-08T08:52:37.199Z,99095.00
2023-02-08T08:55:05.063Z,99094.00
2023-02-08T08:57:32.597Z,99102.00
2023-02-08T08:59:59.343Z,99091.00
2023-02-08T09:02:27.134Z,99091.00
2023-02-08T09:04:53.921Z,99082.00
2023-02-08T09:07:21.231Z,99083.00
2023-02-08T09:09:48.977Z,99073.00
2023-02-08T09:12:16.149Z,99075.00
2023-02-08T09:14:45.724Z,99073.00
2023-02-08T09:17:13.222Z,99084.00
2023-02-08T09:19:40.650Z,99081.00
2023-02-08T09:22:08.784Z,99083.00
2023-02-08T09:24:35.775Z,99080.00
2023-02-08T09:27:04.434Z,99092.00
2023-02-08T09:29:32.743Z,99086.00
2023-02-08T09:31:59.745Z,99095.00
2023-02-08T09:34:26.687Z,99093.00
2023-02-08T09:36:53.475Z,99099.00
2023-02-08T09:39:24.864Z,99101.00
2023-02-08T09:42:21.678Z,99115.00
2023-02-08T09:45:09.916Z,99111.00
2023-02-08T09:48:01.766Z,99119.00
2023-02-08T09:50:37.602Z,99125.00
2023-02-08T09:53:32.406Z,99119.00
2023-02-08T09:56:04.395Z,99107.00
2023-02-08T09:58:46.827Z,99119.00
2023-02-08T10:01:24.184Z,99104.00
2023-02-08T10:04:00.881Z,99099.00
2023-02-08T10:06:30.711Z,99103.00
2023-02-08T10:09:03.396Z,99111.00
2023-02-08T10:12:12.969Z,99105.00
2023-02-08T10:15:18.828Z,99098.00
2023-02-08T10:18:18.980Z,99102.00
2023-02-08T10:20:56.515Z,99104.00
2023-02-08T10:24:14.167Z,99085.00
2023-02-08T10:27:07.058Z,99098.00
2023-02-08T10:30:30.440Z,99088.00
2023-02-08T10:33:18.441Z,99077.00
2023-02-08T10:35:51.221Z,99074.00
2023-02-08T10:38:22.059Z,99093.00
2023-02-08T10:40:55.869Z,99089.00
2023-02-08T10:43:37.690Z,99077.00
2023-02-08T10:46:23.882Z,99065.00
2023-02-08T10:49:08.699Z,99073.00
2023-02-08T10:51:37.179Z,99064.00
2023-02-08T10:54:05.646Z,99055.00
2023-02-08T10:56:58.440Z,99061.00
2023-02-08T10:59:31.857Z,99043.00
2023-02-08T11:01:59.301Z,99054.00
2023-02-08T11:04:26.616Z,99043.00
2023-02-08T11:06:54.799Z,99051.00
2023-02-08T11:09:29.867Z,99043.00
2023-02-08T11:12:01.559Z,99035.00
2023-02-08T11:14:46.845Z,99050.00
2023-02-08T11:17:31.791Z,99047.00
2023-02-08T11:20:00.813Z,99033.00
2023-02-08T11:22:34.450Z,99034.00
2023-02-08T11:25:08.096Z,99027.00
2023-02-08T11:27:43.484Z,99028.00
2023-02-08T11:30:14.465Z,99030.00
2023-02-08T11:32:48.177Z,99029.00
2023-02-08T11:35:20.610Z,99023.00
2023-02-08T11:37:57.969Z,99019.00
2023-02-08T11:40:34.728Z,99021.00
2023-02-08T11:43:05.006Z,99021.00
2023-02-08T11:45:37.745Z,99015.00
2023-02-08T11:48:23.874Z,99023.00
2023-02-08T11:51:02.623Z,99036.00
2023-02-08T11:53:50.421Z,99020.00
2023-02-08T11:56:25.610Z,99013.00
2023-02-08T11:59:24.698Z,99000.00
2023-02-08T12:01:51.470Z,99004.00
2023-02-08T12:04:19.279Z,98993.00
2023-02-08T12:07:23.587Z,98999.00
2023-02-08T12:10:05.617Z,98992.00
2023-02-08T12:12:53.166Z,98991.00
2023-02-08T12:15:57.124Z,98985.00
2023-02-08T12:18:53.434Z,98974.00
2023-02-08T12:21:29.515Z,98975.00
2023-02-08T12:24:03.501Z,98979.00
2023-02-08T12:27:27.261Z,98971.00
2023-02-08T12:30:37.957Z,98972.00
2023-02-08T12:33:36.837Z,98963.00
2023-02-08T12:36:27.961Z,98950.00
2023-02-08T12:42:45.609Z,98924.00
2023-02-08T12:49:26.662Z,98917.00
2023-02-08T12:52:03.329Z,98912.00
2023-02-08T12:54:42.898Z,98915.00
2023-02-08T12:57:15.609Z,98918.00
2023-02-08T13:00:16.077Z,98909.00
2023-02-08T13:02:57.683Z,98905.00
2023-02-08T13:05:31.900Z,98911.00
2023-02-08T13:08:41.238Z,98896.00
2023-02-08T13:11:29.735Z,98896.00
2023-02-08T13:14:13.528Z,98885.00
2023-02-08T13:16:47.319Z,98881.00
2023-02-08T13:19:48.165Z,98875.00
2023-02-08T13:22:22.240Z,98889.00
2023-02-08T13:25:05.066Z,98897.00
2023-02-08T13:27:33.524Z,98900.00
2023-02-08T13:30:01.759Z,98897.00
2023-02-08T13:32:36.332Z,98880.00
2023-02-08T13:35:15.400Z,98883.00
2023-02-08T13:37:42.964Z,98884.00
2023-02-08T13:40:34.764Z,98876.00
2023-02-08T13:43:34.962Z,98888.00
2023-02-08T13:46:04.072Z,98888.00
2023-02-08T13:49:01.975Z,98892.00
2023-02-08T13:51:31.716Z,98889.00
2023-02-08T13:53:58.546Z,98885.00
2023-02-08T13:56:42.439Z,98874.00
2023-02-08T13:59:35.314Z,98860.00
2023-02-08T14:02:20.219Z,98860.00
2023-02-08T14:05:10.561Z,98868.00
2023-02-08T14:07:46.621Z,98853.00
2023-02-08T14:10:39.692Z,98870.00
2023-02-08T14:13:29.824Z,98862.00
2023-02-08T14:16:33.655Z,98857.00
2023-02-08T14:19:18.078Z,98862.00
2023-02-08T14:22:02.402Z,98848.00
2023-02-08T14:24:37.832Z,98851.00
2023-02-08T14:27:16.198Z,98844.00
2023-02-08T14:29:43.400Z,98836.00
2023-02-08T14:32:27.043Z,98846.00
2023-02-08T14:35:25.424Z,98854.00
2023-02-08T14:38:24.495Z,98845.00
2023-02-08T14:40:53.491Z,98860.00
2023-02-08T14:43:20.216Z,98855.00
2023-02-08T14:45:50.108Z,98873.00
2023-02-08T14:48:42.894Z,98872.00
2023-02-08T14:51:16.970Z,98882.00
2023-02-08T14:53:52.718Z,98863.00
2023-02-08T14:56:23.015Z,98870.00
2023-02-08T14:59:01.857Z,98868.00
2023-02-08T15:01:28.585Z,98872.00
2023-02-08T15:04:01.587Z,98863.00
2023-02-08T15:06:37.944Z,98863.00
2023-02-08T15:09:25.800Z,98857.00
2023-02-08T15:12:32.365Z,98862.00
2023-02-08T15:15:02.512Z,98855.00
2023-02-08T15:17:46.165Z,98856.00
2023-02-08T15:20:22.156Z,98856.00
2023-02-08T15:22:49.401Z,98853.00
2023-02-08T15:25:27.307Z,98852.00
2023-02-08T15:28:00.955Z,98847.00
2023-02-08T15:30:38.844Z,98840.00
2023-02-08T15:33:17.914Z,98845.00
2023-02-08T15:35:46.354Z,98839.00
2023-02-08T15:38:21.021Z,98824.00
2023-02-08T15:41:16.029Z,98818.00
2023-02-08T15:43:43.349Z,98815.00
2023-02-08T15:46:26.121Z,98815.00
2023-02-08T15:48:53.942Z,98820.00
2023-02-08T15:51:23.095Z,98828.00
2023-02-08T15:53:53.998Z,98829.00
2023-02-08T15:56:38.712Z,98829.00
2023-02-08T15:59:16.682Z,98829.00
2023-02-08T16:01:47.796Z,98831.00
2023-02-08T16:04:14.739Z,98819.00
2023-02-08T16:06:55.288Z,98829.00
2023-02-08T16:09:28.288Z,98816.00
2023-02-08T16:12:00.720Z,98819.00
2023-02-08T16:14:30.198Z,98812.00
2023-02-08T16:16:58.788Z,98815.00
2023-02-08T16:20:22.918Z,98824.00
2023-02-08T16:23:23.642Z,98827.00
2023-02-08T16:25:51.223Z,98826.00
2023-02-08T16:28:33.342Z,98823.00
2023-02-08T16:31:03.682Z,98813.00
2023-02-08T16:33:32.815Z,98823.00
2023-02-08T16:36:03.437Z,98818.00
2023-02-08T16:38:33.959Z,98812.00
2023-02-08T16:41:12.687Z,98825.00
2023-02-08T16:43:47.928Z,98816.00
2023-02-08T16:46:21.568Z,98826.00
2023-02-08T16:48:56.864Z,98821.00
2023-02-08T16:51:31.131Z,98826.00
2023-02-08T16:54:07.433Z,98823.00
2023-02-08T16:56:38.322Z,98813.00
2023-02-08T16:59:05.737Z,98812.00
2023-02-08T17:01:33.324Z,98814.00
2023-02-08T17:04:00.430Z,98814.00
2023-02-08T17:06:34.359Z,98813.00
2023-02-08T17:09:04.651Z,98821.00
2023-02-08T17:11:32.236Z,98819.00
2023-02-08T17:13:59.232Z,98826.00
2023-02-08T17:16:29.828Z,98822.00
2023-02-08T17:18:57.912Z,98817.00
2023-02-08T17:21:24.766Z,98826.00
2023-02-08T17:23:51.574Z,98819.00
2023-02-08T17:26:24.089Z,98824.00
2023-02-08T17:28:50.945Z,98823.00
2023-02-08T17:31:17.874Z,98822.00
2023-02-08T17:33:44.969Z,98827.00
2023-02-08T17:36:14.450Z,98822.00
2023-02-08T17:38:43.506Z,98826.00
2023-02-08T17:41:19.139Z,98823.00
2023-02-08T17:43:50.969Z,98826.00
2023-02-08T17:46:27.928Z,98844.00
2023-02-08T17:48:54.826Z,98834.00
2023-02-08T17:51:24.078Z,98842.00
2023-02-08T17:53:51.589Z,98830.00
2023-02-08T17:56:28.304Z,98826.00
2023-02-08T17:58:55.992Z,98830.00
2023-02-08T18:01:26.741Z,98822.00
2023-02-08T18:03:54.366Z,98824.00
2023-02-08T18:06:23.753Z,98823.00
2023-02-08T18:08:59.496Z,98823.00
2023-02-08T18:11:26.268Z,98826.00
2023-02-08T18:13:54.266Z,98821.00
2023-02-08T18:16:25.295Z,98810.00
2023-02-08T18:18:55.526Z,98814.00
2023-02-08T18:21:26.592Z,98815.00
2023-02-08T18:23:55.300Z,98808.00
2023-02-08T18:26:25.772Z,98799.00
2023-02-08T18:28:53.169Z,98796.00
2023-02-08T18:31:21.176Z,98803.00
2023-02-08T18:33:49.904Z,98808.00
2023-02-08T18:36:17.299Z,98808.00
2023-02-08T18:38:47.353Z,98800.00
2023-02-08T18:41:18.636Z,98803.00
2023-02-08T18:43:46.986Z,98811.00
2023-02-08T18:46:18.234Z,98804.00
2023-02-08T18:48:47.337Z,98803.00
2023-02-08T18:51:19.491Z,98793.00
2023-02-08T18:53:54.098Z,98794.00
2023-02-08T18:56:25.923Z,98798.00
2023-02-08T18:58:56.009Z,98801.00
2023-02-08T19:01:25.911Z,98799.00
2023-02-08T19:03:53.299Z,98801.00
2023-02-08T19:06:24.678Z,98787.00
2023-02-08T19:08:54.952Z,98770.00
2023-02-08T19:11:29.586Z,98784.00
2023-02-08T19:13:59.964Z,98792.00
2023-02-08T19:16:27.710Z,98796.00
2023-02-08T19:18:56.430Z,98787.00
2023-02-08T19:21:24.291Z,98787.00
2023-02-08T19:23:54.121Z,98805.00
2023-02-08T19:26:26.753Z,98804.00
2023-02-08T19:28:58.053Z,98801.00
2023-02-08T19:31:27.711Z,98795.00
2023-02-08T19:33:58.624Z,98796.00
2023-02-08T19:36:38.688Z,98797.00
2023-02-08T19:39:07.896Z,98798.00
2023-02-08T19:41:39.654Z,98794.00
2023-02-08T19:44:09.528Z,98797.00
2023-02-08T19:46:39.479Z,98784.00
2023-02-08T19:49:07.443Z,98782.00
2023-02-08T19:51:37.014Z,98794.00
2023-02-08T19:54:10.280Z,98795.00
2023-02-08T19:56:37.724Z,98793.00
2023-02-08T19:59:06.529Z,98783.00
2023-02-08T20:01:35.603Z,98794.00
2023-02-08T20:04:03.921Z,98786.00
2023-02-08T20:06:38.908Z,98793.00
2023-02-08T20:09:08.697Z,98781.00
2023-02-08T20:11:54.813Z,98783.00
2023-02-08T20:14:23.476Z,98779.00
2023-02-08T20:16:50.588Z,98778.00
2023-02-08T20:19:19.350Z,98771.00
2023-02-08T20:21:46.168Z,98772.00
2023-02-08T20:24:14.313Z,98772.00
2023-02-08T20:26:45.933Z,98768.00
2023-02-08T20:29:15.110Z,98771.00
2023-02-08T20:31:47.014Z,98766.00
2023-02-08T20:34:17.224Z,98774.00
2023-02-08T20:36:57.454Z,98774.00
2023-02-08T20:39:32.778Z,98764.00
2023-02-08T20:41:59.710Z,98772.00
2023-02-08T20:44:28.470Z,98762.00
2023-02-08T20:46:55.554Z,98753.00
2023-02-08T20:49:25.876Z,98753.00
2023-02-08T20:51:54.456Z,98752.00
2023-02-08T20:54:24.401Z,98755.00
2023-02-08T20:56:55.445Z,98766.00
2023-02-08T20:59:24.078Z,98766.00
2023-02-08T21:01:51.388Z,98757.00
2023-02-08T21:04:20.212Z,98752.00
2023-02-08T21:06:47.116Z,98746.00
2023-02-08T21:09:18.654Z,98751.00
2023-02-08T21:11:47.102Z,98747.00
2023-02-08T21:14:20.687Z,98741.00
2023-02-08T21:16:52.573Z,98745.00
2023-02-08T21:19:20.896Z,98734.00
2023-02-08T21:21:53.950Z,98729.00
2023-02-08T21:24:24.353Z,98738.00
2023-02-08T21:26:53.265Z,98738.00
2023-02-08T21:29:21.122Z,98730.00
2023-02-08T21:31:51.705Z,98730.00
2023-02-08T21:34:20.416Z,98738.00
2023-02-08T21:36:47.495Z,98738.00
2023-02-08T21:39:14.864Z,98721.00
2023-02-08T21:41:42.705Z,98724.00
2023-02-08T21:44:11.221Z,98716.00
2023-02-08T21:46:38.396Z,98704.00
2023-02-08T21:49:23.920Z,98699.00
2023-02-08T21:52:11.674Z,98706.00
2023-02-08T21:54:42.361Z,98692.00
2023-02-08T21:57:22.613Z,98699.00
2023-02-08T21:59:53.033Z,98690.00
2023-02-08T22:02:28.908Z,98692.00
2023-02-08T22:05:17.957Z,98691.00
2023-02-08T22:07:55.004Z,98688.00
2023-02-08T22:10:28.339Z,98692.00
2023-02-08T22:12:56.682Z,98681.00
2023-02-08T22:15:27.911Z,98683.00
2023-02-08T22:17:59.607Z,98684.00
2023-02-08T22:20:27.184Z,98677.00
2023-02-08T22:22:55.436Z,98679.00
2023-02-08T22:25:24.208Z,98672.00
2023-02-08T22:27:52.820Z,98673.00
2023-02-08T22:30:21.834Z,98666.00
2023-02-08T22:32:49.417Z,98670.00
2023-02-08T22:35:17.998Z,98667.00
2023-02-08T22:37:45.983Z,98675.00
2023-02-08T22:40:13.112Z,98658.00
2023-02-08T22:42:41.828Z,98664.00
2023-02-08T22:45:09.816Z,98672.00
2023-02-08T22:47:39.628Z,98669.00
2023-02-08T22:50:08.176Z,98669.00
2023-02-08T22:52:35.500Z,98676.00
2023-02-08T22:55:04.336Z,98681.00
2023-02-08T22:57:33.515Z,98681.00
2023-02-08T23:00:01.433Z,98689.00
2023-02-08T23:02:28.472Z,98684.00
2023-02-08T23:04:57.060Z,98679.00
2023-02-08T23:07:24.713Z,98681.00
2023-02-08T23:09:52.890Z,98688.00
2023-02-08T23:12:20.890Z,98685.00
2023-02-08T23:14:49.751Z,98676.00
2023-02-08T23:17:17.347Z,98682.00
2023-02-08T23:19:44.624Z,98675.00
2023-02-08T23:22:11.521Z,98667.00
2023-02-08T23:24:39.455Z,98679.00
2023-02-08T23:27:07.313Z,98665.00
2023-02-08T23:29:35.297Z,98664.00
2023-02-08T23:32:02.141Z,98660.00
2023-02-08T23:34:29.005Z,98659.00
2023-02-08T23:36:56.554Z,98672.00
2023-02-08T23:39:23.636Z,98675.00
2023-02-08T23:41:53.191Z,98665.00
2023-02-08T23:44:19.952Z,98657.00
2023-02-08T23:46:46.845Z,98662.00
2023-02-08T23:49:15.215Z,98660.00
2023-02-08T23:51:43.588Z,98656.00
2023-02-08T23:54:11.433Z,98654.00
2023-02-08T23:56:38.754Z,98660.00
2023-02-08T23:59:08.212Z,98652.00
